createdAt,value
2023-06-04T00:00:54.731Z,4.40
2023-06-04T00:01:54.631Z,4.50
2023-06-04T00:02:54.833Z,4.60
2023-06-04T00:03:54.590Z,4.30
2023-06-04T00:04:54.505Z,4.40
2023-06-04T00:05:54.424Z,4.60
2023-06-04T00:06:54.585Z,4.70
2023-06-04T00:07:54.326Z,4.60
2023-06-04T00:08:54.289Z,4.60
2023-06-04T00:09:54.134Z,4.10
2023-06-04T00:10:54.088Z,4.20
2023-06-04T00:11:54.050Z,4.40
2023-06-04T00:12:54.131Z,4.70
2023-06-04T00:13:53.909Z,4.00
2023-06-04T00:14:53.865Z,4.30
2023-06-04T00:15:53.855Z,4.30
2023-06-04T00:16:53.691Z,4.50
2023-06-04T00:17:53.692Z,5.80
2023-06-04T00:18:53.714Z,5.00
2023-06-04T00:19:53.596Z,4.40
2023-06-04T00:20:53.447Z,4.30
2023-06-04T00:21:53.403Z,3.90
2023-06-04T00:22:53.336Z,4.10
2023-06-04T00:23:53.362Z,4.20
2023-06-04T00:24:53.242Z,4.50
2023-06-04T00:25:53.154Z,4.30
2023-06-04T00:26:53.087Z,5.00
2023-06-04T00:27:53.138Z,6.20
2023-06-04T00:28:53.002Z,4.40
2023-06-04T00:29:52.937Z,4.90
2023-06-04T00:30:52.846Z,4.60
2023-06-04T00:31:52.890Z,4.80
2023-06-04T00:32:52.813Z,4.10
2023-06-04T00:33:52.684Z,4.60
2023-06-04T00:34:53.477Z,4.70
2023-06-04T00:35:52.566Z,4.40
2023-06-04T00:36:52.522Z,5.10
2023-06-04T00:37:52.459Z,4.90
2023-06-04T00:38:52.336Z,4.80
2023-06-04T00:39:52.281Z,4.60
2023-06-04T00:40:52.261Z,4.50
2023-06-04T00:41:52.176Z,4.30
2023-06-04T00:42:52.252Z,4.50
2023-06-04T00:43:51.995Z,4.20
2023-06-04T00:44:51.943Z,4.30
2023-06-04T00:45:51.958Z,4.70
2023-06-04T00:46:51.835Z,4.70
2023-06-04T00:47:51.829Z,4.40
2023-06-04T00:48:52.466Z,4.20
2023-06-04T00:49:51.662Z,4.20
2023-06-04T00:50:51.586Z,4.20
2023-06-04T00:51:51.549Z,4.40
2023-06-04T00:52:51.487Z,4.30
2023-06-04T00:53:51.401Z,4.20
2023-06-04T00:54:51.345Z,4.50
2023-06-04T00:55:51.272Z,4.20
2023-06-04T00:56:51.241Z,4.10
2023-06-04T00:57:51.180Z,4.30
2023-06-04T00:58:51.975Z,4.50
2023-06-04T00:59:51.021Z,4.70
2023-06-04T01:00:51.108Z,4.60
2023-06-04T01:01:50.886Z,4.20
2023-06-04T01:02:51.002Z,4.40
2023-06-04T01:03:50.803Z,4.30
2023-06-04T01:04:50.705Z,4.90
2023-06-04T01:05:50.677Z,4.60
2023-06-04T01:06:50.610Z,4.10
2023-06-04T01:07:50.606Z,4.40
2023-06-04T01:08:50.521Z,4.30
2023-06-04T01:09:50.418Z,4.80
2023-06-04T01:10:50.396Z,4.10
2023-06-04T01:11:50.239Z,4.00
2023-06-04T01:12:50.296Z,4.40
2023-06-04T01:13:50.112Z,4.50
2023-06-04T01:14:50.066Z,4.20
2023-06-04T01:15:50.047Z,4.40
2023-06-04T01:16:50.033Z,4.30
2023-06-04T01:17:49.967Z,4.20
2023-06-04T01:18:49.847Z,4.80
2023-06-04T01:19:49.819Z,4.20
2023-06-04T01:20:49.731Z,4.10
2023-06-04T01:21:49.666Z,3.40
2023-06-04T01:22:49.590Z,4.10
2023-06-04T01:23:49.546Z,4.20
2023-06-04T01:24:49.451Z,4.50
2023-06-04T01:25:49.437Z,4.10
2023-06-04T01:26:49.365Z,3.90
2023-06-04T01:27:49.387Z,4.40
2023-06-04T01:28:49.185Z,4.20
2023-06-04T01:29:49.154Z,4.20
2023-06-04T01:30:49.069Z,4.30
2023-06-04T01:31:49.055Z,4.30
2023-06-04T01:32:48.971Z,3.90
2023-06-04T01:33:50.949Z,4.20
2023-06-04T01:34:48.893Z,4.00
2023-06-04T01:35:48.757Z,4.40
2023-06-04T01:36:48.746Z,3.80
2023-06-04T01:37:48.667Z,3.70
2023-06-04T01:38:48.628Z,4.10
2023-06-04T01:39:48.598Z,4.40
2023-06-04T01:40:48.486Z,4.10
2023-06-04T01:41:48.489Z,4.10
2023-06-04T01:42:48.344Z,4.20
2023-06-04T01:43:48.300Z,4.10
2023-06-04T01:44:48.188Z,3.90
2023-06-04T01:45:48.103Z,4.20
2023-06-04T01:46:48.097Z,4.20
2023-06-04T01:47:48.103Z,4.10
2023-06-04T01:48:47.944Z,4.60
2023-06-04T01:49:47.906Z,3.90
2023-06-04T01:50:47.826Z,4.40
2023-06-04T01:51:47.776Z,4.40
2023-06-04T01:52:47.678Z,4.30
2023-06-04T01:53:47.691Z,3.90
2023-06-04T01:54:48.465Z,4.20
2023-06-04T01:55:47.501Z,4.10
2023-06-04T01:56:47.450Z,4.00
2023-06-04T01:57:47.363Z,3.80
2023-06-04T01:58:47.338Z,3.90
2023-06-04T01:59:48.016Z,4.10
2023-06-04T02:00:47.184Z,4.10
2023-06-04T02:01:47.984Z,4.10
2023-06-04T02:02:47.180Z,4.80
2023-06-04T02:03:47.044Z,4.60
2023-06-04T02:04:46.961Z,4.50
2023-06-04T02:05:46.897Z,4.70
2023-06-04T02:06:46.828Z,3.90
2023-06-04T02:07:46.805Z,4.20
2023-06-04T02:08:47.626Z,4.10
2023-06-04T02:09:46.637Z,4.20
2023-06-04T02:10:46.566Z,4.40
2023-06-04T02:11:46.475Z,4.20
2023-06-04T02:12:46.458Z,4.50
2023-06-04T02:13:46.400Z,5.10
2023-06-04T02:14:46.309Z,4.70
2023-06-04T02:15:46.249Z,5.00
2023-06-04T02:16:46.240Z,4.70
2023-06-04T02:17:46.153Z,5.20
2023-06-04T02:18:46.200Z,4.60
2023-06-04T02:19:46.020Z,5.50
2023-06-04T02:20:45.962Z,5.00
2023-06-04T02:21:45.887Z,5.90
2023-06-04T02:22:45.806Z,4.80
2023-06-04T02:23:45.773Z,4.90
2023-06-04T02:24:45.717Z,5.20
2023-06-04T02:25:45.591Z,5.60
2023-06-04T02:26:45.544Z,5.60
2023-06-04T02:27:45.485Z,5.60
2023-06-04T02:28:45.446Z,5.40
2023-06-04T02:29:45.373Z,5.30
2023-06-04T02:30:45.301Z,5.70
2023-06-04T02:31:45.264Z,5.50
2023-06-04T02:32:45.209Z,5.90
2023-06-04T02:33:45.134Z,5.40
2023-06-04T02:34:45.172Z,5.70
2023-06-04T02:35:44.984Z,5.10
2023-06-04T02:36:44.894Z,4.80
2023-06-04T02:37:44.853Z,5.80
2023-06-04T02:38:44.802Z,4.80
2023-06-04T02:39:44.831Z,4.80
2023-06-04T02:40:44.722Z,4.90
2023-06-04T02:41:44.609Z,4.20
2023-06-04T02:42:44.559Z,4.50
2023-06-04T02:43:44.509Z,4.30
2023-06-04T02:44:44.415Z,4.20
2023-06-04T02:45:44.400Z,4.10
2023-06-04T02:46:44.312Z,4.20
2023-06-04T02:47:44.301Z,4.60
2023-06-04T02:48:44.185Z,4.40
2023-06-04T02:49:44.099Z,4.60
2023-06-04T02:50:44.048Z,4.20
2023-06-04T02:51:43.943Z,4.10
2023-06-04T02:52:44.488Z,4.70
2023-06-04T02:53:43.867Z,4.80
2023-06-04T02:54:43.807Z,4.30
2023-06-04T02:55:43.795Z,4.80
2023-06-04T02:56:43.653Z,4.50
2023-06-04T02:57:43.744Z,4.70
2023-06-04T02:58:43.520Z,4.70
2023-06-04T02:59:43.524Z,4.70
2023-06-04T03:00:43.408Z,4.60
2023-06-04T03:01:43.477Z,5.10
2023-06-04T03:02:43.411Z,4.50
2023-06-04T03:03:43.333Z,4.20
2023-06-04T03:04:43.154Z,4.70
2023-06-04T03:05:43.119Z,4.30
2023-06-04T03:06:43.024Z,4.40
2023-06-04T03:07:43.173Z,5.00
2023-06-04T03:08:42.947Z,4.70
2023-06-04T03:09:42.829Z,4.60
2023-06-04T03:10:42.794Z,4.70
2023-06-04T03:11:42.708Z,4.70
2023-06-04T03:12:42.623Z,5.30
2023-06-04T03:13:42.768Z,5.10
2023-06-04T03:14:42.488Z,5.10
2023-06-04T03:15:42.515Z,4.90
2023-06-04T03:16:42.371Z,4.90
2023-06-04T03:17:42.459Z,4.30
2023-06-04T03:18:42.277Z,5.40
2023-06-04T03:19:42.263Z,5.00
2023-06-04T03:20:42.108Z,3.90
2023-06-04T03:21:42.134Z,4.40
2023-06-04T03:22:43.430Z,4.40
2023-06-04T03:23:41.961Z,4.60
2023-06-04T03:24:41.887Z,4.40
2023-06-04T03:25:41.929Z,4.30
2023-06-04T03:26:41.783Z,4.50
2023-06-04T03:27:41.670Z,4.40
2023-06-04T03:28:41.665Z,4.40
2023-06-04T03:29:41.570Z,4.10
2023-06-04T03:30:41.541Z,4.00
2023-06-04T03:31:41.571Z,4.20
2023-06-04T03:32:41.467Z,4.60
2023-06-04T03:33:41.346Z,4.70
2023-06-04T03:34:41.252Z,4.40
2023-06-04T03:35:41.232Z,4.70
2023-06-04T03:36:41.099Z,4.50
2023-06-04T03:37:41.100Z,5.20
2023-06-04T03:38:41.996Z,5.30
2023-06-04T03:39:41.455Z,5.10
2023-06-04T03:40:40.920Z,5.10
2023-06-04T03:41:40.817Z,5.20
2023-06-04T03:42:40.746Z,4.80
2023-06-04T03:43:40.661Z,5.30
2023-06-04T03:44:40.620Z,4.90
2023-06-04T03:45:40.613Z,5.20
2023-06-04T03:46:40.509Z,6.50
2023-06-04T03:47:40.616Z,5.80
2023-06-04T03:48:40.380Z,6.20
2023-06-04T03:49:40.329Z,5.50
2023-06-04T03:50:40.325Z,5.90
2023-06-04T03:51:40.208Z,5.60
2023-06-04T03:52:40.997Z,5.70
2023-06-04T03:53:40.168Z,6.00
2023-06-04T03:54:40.003Z,6.30
2023-06-04T03:55:39.930Z,6.00
2023-06-04T03:56:39.953Z,6.50
2023-06-04T03:57:39.811Z,7.00
2023-06-04T03:58:39.764Z,6.50
2023-06-04T03:59:39.787Z,6.40
2023-06-04T04:00:40.166Z,6.40
2023-06-04T04:01:39.614Z,6.10
2023-06-04T04:02:40.584Z,5.90
2023-06-04T04:03:39.516Z,5.90
2023-06-04T04:04:39.331Z,5.90
2023-06-04T04:05:39.305Z,6.10
2023-06-04T04:06:39.235Z,5.80
2023-06-04T04:07:39.286Z,6.30
2023-06-04T04:08:39.130Z,5.90
2023-06-04T04:09:39.085Z,5.90
2023-06-04T04:10:38.957Z,6.10
2023-06-04T04:11:38.939Z,5.80
2023-06-04T04:12:38.901Z,5.90
2023-06-04T04:13:38.819Z,6.20
2023-06-04T04:14:38.710Z,5.60
2023-06-04T04:15:38.678Z,5.60
2023-06-04T04:16:38.669Z,5.40
2023-06-04T04:17:38.616Z,5.20
2023-06-04T04:18:38.452Z,5.20
2023-06-04T04:19:38.406Z,6.30
2023-06-04T04:20:38.375Z,6.50
2023-06-04T04:21:38.347Z,5.70
2023-06-04T04:22:38.241Z,5.40
2023-06-04T04:23:38.174Z,5.10
2023-06-04T04:24:38.220Z,6.00
2023-06-04T04:25:38.006Z,5.50
2023-06-04T04:26:37.973Z,6.20
2023-06-04T04:27:37.907Z,5.00
2023-06-04T04:28:37.851Z,5.90
2023-06-04T04:29:37.878Z,5.50
2023-06-04T04:30:37.797Z,5.50
2023-06-04T04:31:37.761Z,5.20
2023-06-04T04:32:37.696Z,6.10
2023-06-04T04:33:37.528Z,5.70
2023-06-04T04:34:37.460Z,5.50
2023-06-04T04:35:37.375Z,6.10
2023-06-04T04:36:37.360Z,5.30
2023-06-04T04:37:37.319Z,5.80
2023-06-04T04:38:37.262Z,5.40
2023-06-04T04:39:37.172Z,5.50
2023-06-04T04:40:37.117Z,5.60
2023-06-04T04:41:37.039Z,5.70
2023-06-04T04:42:37.940Z,5.10
2023-06-04T04:43:37.933Z,5.50
2023-06-04T04:44:36.828Z,5.10
2023-06-04T04:45:36.740Z,5.10
2023-06-04T04:46:36.725Z,5.80
2023-06-04T04:47:36.627Z,4.60
2023-06-04T04:48:36.621Z,4.60
2023-06-04T04:49:36.618Z,5.10
2023-06-04T04:50:36.473Z,5.50
2023-06-04T04:51:36.410Z,5.20
2023-06-04T04:52:36.303Z,5.30
2023-06-04T04:53:36.247Z,5.50
2023-06-04T04:54:36.286Z,4.50
2023-06-04T04:55:36.224Z,4.90
2023-06-04T04:56:36.170Z,5.10
2023-06-04T04:57:35.997Z,4.60
2023-06-04T04:58:36.008Z,4.90
2023-06-04T04:59:35.885Z,5.00
2023-06-04T05:00:35.843Z,5.10
2023-06-04T05:01:35.881Z,5.00
2023-06-04T05:02:35.759Z,4.80
2023-06-04T05:03:35.663Z,5.20
2023-06-04T05:04:35.647Z,5.20
2023-06-04T05:05:35.502Z,4.90
2023-06-04T05:06:35.448Z,5.40
2023-06-04T05:07:35.389Z,4.90
2023-06-04T05:08:35.291Z,4.80
2023-06-04T05:09:35.314Z,4.50
2023-06-04T05:10:35.213Z,4.60
2023-06-04T05:11:35.120Z,5.10
2023-06-04T05:12:35.066Z,4.80
2023-06-04T05:13:35.612Z,4.70
2023-06-04T05:14:34.903Z,4.70
2023-06-04T05:15:34.923Z,4.60
2023-06-04T05:16:34.850Z,4.60
2023-06-04T05:17:34.758Z,5.20
2023-06-04T05:18:34.704Z,4.60
2023-06-04T05:19:34.617Z,4.90
2023-06-04T05:20:34.554Z,4.30
2023-06-04T05:21:34.589Z,4.90
2023-06-04T05:22:34.448Z,4.50
2023-06-04T05:23:34.406Z,4.90
2023-06-04T05:24:34.323Z,4.50
2023-06-04T05:25:34.297Z,4.70
2023-06-04T05:26:34.280Z,4.70
2023-06-04T05:27:34.136Z,4.70
2023-06-04T05:28:34.022Z,5.00
2023-06-04T05:29:34.001Z,4.60
2023-06-04T05:30:33.999Z,5.00
2023-06-04T05:31:33.932Z,4.90
2023-06-04T05:32:33.913Z,4.90
2023-06-04T05:33:33.707Z,4.60
2023-06-04T05:34:33.760Z,5.00
2023-06-04T05:35:33.633Z,4.60
2023-06-04T05:36:33.554Z,4.80
2023-06-04T05:37:33.502Z,4.90
2023-06-04T05:38:34.012Z,5.20
2023-06-04T05:39:33.488Z,5.10
2023-06-04T05:40:33.357Z,5.00
2023-06-04T05:41:33.220Z,5.20
2023-06-04T05:42:33.210Z,5.50
2023-06-04T05:43:33.110Z,5.20
2023-06-04T05:44:33.050Z,5.60
2023-06-04T05:45:33.129Z,5.10
2023-06-04T05:46:32.969Z,5.10
2023-06-04T05:47:32.915Z,5.60
2023-06-04T05:48:32.822Z,5.50
2023-06-04T05:49:32.855Z,5.60
2023-06-04T05:50:32.699Z,5.30
2023-06-04T05:51:32.582Z,5.40
2023-06-04T05:52:32.544Z,5.20
2023-06-04T05:53:32.455Z,5.00
2023-06-04T05:54:32.461Z,5.50
2023-06-04T05:55:32.362Z,5.50
2023-06-04T05:56:32.324Z,5.30
2023-06-04T05:57:32.244Z,5.90
2023-06-04T05:58:32.252Z,5.60
2023-06-04T05:59:32.084Z,5.30
2023-06-04T06:00:32.177Z,5.30
2023-06-04T06:01:32.048Z,5.50
2023-06-04T06:02:33.020Z,5.50
2023-06-04T06:03:32.138Z,5.40
2023-06-04T06:04:31.885Z,5.50
2023-06-04T06:05:31.731Z,5.60
2023-06-04T06:06:31.800Z,5.40
2023-06-04T06:07:31.705Z,5.70
2023-06-04T06:08:31.551Z,5.70
2023-06-04T06:09:31.484Z,6.00
2023-06-04T06:10:31.439Z,5.60
2023-06-04T06:11:31.397Z,6.00
2023-06-04T06:12:31.282Z,5.00
2023-06-04T06:13:31.350Z,5.20
2023-06-04T06:14:31.190Z,6.00
2023-06-04T06:15:31.141Z,5.50
2023-06-04T06:16:31.092Z,5.60
2023-06-04T06:17:31.054Z,5.10
2023-06-04T06:18:30.934Z,5.40
2023-06-04T06:19:32.157Z,5.30
2023-06-04T06:20:30.864Z,5.60
2023-06-04T06:21:30.762Z,5.70
2023-06-04T06:22:30.669Z,5.90
2023-06-04T06:23:30.702Z,5.40
2023-06-04T06:24:30.540Z,5.20
2023-06-04T06:25:30.699Z,5.10
2023-06-04T06:26:30.496Z,5.40
2023-06-04T06:27:30.393Z,6.30
2023-06-04T06:28:30.327Z,5.70
2023-06-04T06:29:30.273Z,5.90
2023-06-04T06:30:30.202Z,5.60
2023-06-04T06:31:30.217Z,5.30
2023-06-04T06:32:30.947Z,5.70
2023-06-04T06:33:30.020Z,5.80
2023-06-04T06:34:29.956Z,5.10
2023-06-04T06:35:29.919Z,5.30
2023-06-04T06:36:29.917Z,5.30
2023-06-04T06:37:29.782Z,5.20
2023-06-04T06:38:29.717Z,5.40
2023-06-04T06:39:29.731Z,5.50
2023-06-04T06:40:29.648Z,5.40
2023-06-04T06:41:29.509Z,4.90
2023-06-04T06:42:29.521Z,5.40
2023-06-04T06:43:29.490Z,5.20
2023-06-04T06:44:30.160Z,5.50
2023-06-04T06:45:29.296Z,4.70
2023-06-04T06:46:29.289Z,5.20
2023-06-04T06:47:29.284Z,5.20
2023-06-04T06:48:29.112Z,5.70
2023-06-04T06:49:29.097Z,5.00
2023-06-04T06:50:29.020Z,5.00
2023-06-04T06:51:28.971Z,4.90
2023-06-04T06:52:28.893Z,5.90
2023-06-04T06:53:28.803Z,4.80
2023-06-04T06:54:28.766Z,5.30
2023-06-04T06:55:29.457Z,5.20
2023-06-04T06:56:28.708Z,5.20
2023-06-04T06:57:28.569Z,5.40
2023-06-04T06:58:28.547Z,5.50
2023-06-04T06:59:28.462Z,5.10
2023-06-04T07:00:28.357Z,5.50
2023-06-04T07:01:28.336Z,5.50
2023-06-04T07:02:28.388Z,5.10
2023-06-04T07:03:28.247Z,5.10
2023-06-04T07:04:28.207Z,4.90
2023-06-04T07:05:28.117Z,4.80
2023-06-04T07:06:28.030Z,5.20
2023-06-04T07:07:28.931Z,4.90
2023-06-04T07:08:27.988Z,4.50
2023-06-04T07:09:27.876Z,5.10
2023-06-04T07:10:27.781Z,4.80
2023-06-04T07:11:27.696Z,4.60
2023-06-04T07:12:27.692Z,4.80
2023-06-04T07:13:27.808Z,5.00
2023-06-04T07:14:27.571Z,4.00
2023-06-04T07:15:27.490Z,4.70
2023-06-04T07:16:27.547Z,4.70
2023-06-04T07:17:27.428Z,5.10
2023-06-04T07:18:27.304Z,4.50
2023-06-04T07:19:27.960Z,4.70
2023-06-04T07:20:27.210Z,4.60
2023-06-04T07:21:27.127Z,4.70
2023-06-04T07:22:27.122Z,4.80
2023-06-04T07:23:27.004Z,4.70
2023-06-04T07:24:26.948Z,5.00
2023-06-04T07:25:26.950Z,5.30
2023-06-04T07:26:26.852Z,5.00
2023-06-04T07:27:26.777Z,4.60
2023-06-04T07:28:26.708Z,4.90
2023-06-04T07:29:26.644Z,4.50
2023-06-04T07:30:27.428Z,4.70
2023-06-04T07:31:26.638Z,4.90
2023-06-04T07:32:26.522Z,4.90
2023-06-04T07:33:29.005Z,4.80
2023-06-04T07:34:26.345Z,4.80
2023-06-04T07:35:26.351Z,4.70
2023-06-04T07:36:26.217Z,5.00
2023-06-04T07:37:26.171Z,4.30
2023-06-04T07:38:26.164Z,4.30
2023-06-04T07:39:26.713Z,4.50
2023-06-04T07:40:26.024Z,4.80
2023-06-04T07:41:25.973Z,4.00
2023-06-04T07:42:25.874Z,4.50
2023-06-04T07:43:26.027Z,4.80
2023-06-04T07:44:25.801Z,4.10
2023-06-04T07:45:27.155Z,5.00
2023-06-04T07:46:25.747Z,4.40
2023-06-04T07:47:25.605Z,4.60
2023-06-04T07:48:25.516Z,4.50
2023-06-04T07:49:25.588Z,4.20
2023-06-04T07:50:25.400Z,3.90
2023-06-04T07:51:25.313Z,4.50
2023-06-04T07:52:25.306Z,4.20
2023-06-04T07:53:25.201Z,4.30
2023-06-04T07:54:25.197Z,4.00
2023-06-04T07:55:25.125Z,4.20
2023-06-04T07:56:25.021Z,4.30
2023-06-04T07:57:24.988Z,4.40
2023-06-04T07:58:24.958Z,4.30
2023-06-04T07:59:24.939Z,4.10
2023-06-04T08:00:24.835Z,4.20
2023-06-04T08:01:24.748Z,4.20
2023-06-04T08:02:24.798Z,3.90
2023-06-04T08:03:24.823Z,3.90
2023-06-04T08:04:24.656Z,3.80
2023-06-04T08:05:24.538Z,4.30
2023-06-04T08:06:24.520Z,4.50
2023-06-04T08:07:24.457Z,4.50
2023-06-04T08:08:24.332Z,4.80
2023-06-04T08:09:24.337Z,4.90
2023-06-04T08:10:24.241Z,5.40
2023-06-04T08:11:24.175Z,4.80
2023-06-04T08:12:24.135Z,4.30
2023-06-04T08:13:24.094Z,4.90
2023-06-04T08:14:23.981Z,4.20
2023-06-04T08:15:23.926Z,4.00
2023-06-04T08:16:23.924Z,4.80
2023-06-04T08:17:23.980Z,4.60
2023-06-04T08:18:23.760Z,4.40
2023-06-04T08:19:23.699Z,4.30
2023-06-04T08:20:24.649Z,4.20
2023-06-04T08:21:23.554Z,4.10
2023-06-04T08:22:23.577Z,4.40
2023-06-04T08:23:23.537Z,4.60
2023-06-04T08:24:23.395Z,4.00
2023-06-04T08:25:23.340Z,4.00
2023-06-04T08:26:23.335Z,4.10
2023-06-04T08:27:23.318Z,4.10
2023-06-04T08:28:23.182Z,4.10
2023-06-04T08:29:23.089Z,3.80
2023-06-04T08:30:23.058Z,3.50
2023-06-04T08:31:23.014Z,3.80
2023-06-04T08:32:23.005Z,4.10
2023-06-04T08:33:22.967Z,4.10
2023-06-04T08:34:22.803Z,4.50
2023-06-04T08:35:23.429Z,3.70
2023-06-04T08:36:22.737Z,4.20
2023-06-04T08:37:22.644Z,3.80
2023-06-04T08:38:22.667Z,3.70
2023-06-04T08:39:22.524Z,4.10
2023-06-04T08:40:22.473Z,3.60
2023-06-04T08:41:22.383Z,3.90
2023-06-04T08:42:22.425Z,4.00
2023-06-04T08:43:22.262Z,4.10
2023-06-04T08:44:22.277Z,3.60
2023-06-04T08:45:22.309Z,3.90
2023-06-04T08:46:22.270Z,4.00
2023-06-04T08:47:22.090Z,3.80
2023-06-04T08:48:21.998Z,3.70
2023-06-04T08:49:21.967Z,4.00
2023-06-04T08:50:22.002Z,4.50
2023-06-04T08:51:21.850Z,4.20
2023-06-04T08:52:21.789Z,3.70
2023-06-04T08:53:21.798Z,3.90
2023-06-04T08:54:21.706Z,4.30
2023-06-04T08:55:21.632Z,4.00
2023-06-04T08:56:21.567Z,5.10
2023-06-04T08:57:21.501Z,4.50
2023-06-04T08:58:21.420Z,4.30
2023-06-04T08:59:21.366Z,4.50
2023-06-04T09:00:21.519Z,4.40
2023-06-04T09:01:21.325Z,4.40
2023-06-04T09:02:21.321Z,5.30
2023-06-04T09:03:21.241Z,4.50
2023-06-04T09:04:21.142Z,4.30
2023-06-04T09:05:21.049Z,4.50
2023-06-04T09:06:20.982Z,4.00
2023-06-04T09:07:20.941Z,5.20
2023-06-04T09:08:20.866Z,4.40
2023-06-04T09:09:20.873Z,5.00
2023-06-04T09:10:20.835Z,5.30
2023-06-04T09:11:20.769Z,5.20
2023-06-04T09:12:20.635Z,4.50
2023-06-04T09:13:20.597Z,4.70
2023-06-04T09:14:20.494Z,4.40
2023-06-04T09:15:20.479Z,5.30
2023-06-04T09:16:20.495Z,4.80
2023-06-04T09:17:20.365Z,4.80
2023-06-04T09:18:20.235Z,4.70
2023-06-04T09:19:20.212Z,4.80
2023-06-04T09:20:20.146Z,5.00
2023-06-04T09:21:20.097Z,4.80
2023-06-04T09:22:20.059Z,5.20
2023-06-04T09:23:20.021Z,5.20
2023-06-04T09:24:20.066Z,4.90
2023-06-04T09:25:19.883Z,5.70
2023-06-04T09:26:19.771Z,5.20
2023-06-04T09:27:19.751Z,5.20
2023-06-04T09:28:19.688Z,5.20
2023-06-04T09:29:19.630Z,4.70
2023-06-04T09:30:19.611Z,4.80
2023-06-04T09:31:19.547Z,4.60
2023-06-04T09:32:19.464Z,4.40
2023-06-04T09:33:19.389Z,4.20
2023-06-04T09:34:19.364Z,4.70
2023-06-04T09:35:19.385Z,5.10
2023-06-04T09:36:19.200Z,4.80
2023-06-04T09:37:19.142Z,5.00
2023-06-04T09:38:19.223Z,5.90
2023-06-04T09:39:19.102Z,4.30
2023-06-04T09:40:19.067Z,4.30
2023-06-04T09:41:18.937Z,4.80
2023-06-04T09:42:19.458Z,4.60
2023-06-04T09:43:18.861Z,4.90
2023-06-04T09:44:18.770Z,4.80
2023-06-04T09:45:18.761Z,4.80
2023-06-04T09:46:18.735Z,4.60
2023-06-04T09:47:18.601Z,4.60
2023-06-04T09:48:18.647Z,4.40
2023-06-04T09:49:18.491Z,4.20
2023-06-04T09:50:18.436Z,4.50
2023-06-04T09:51:18.384Z,4.50
2023-06-04T09:52:18.367Z,4.90
2023-06-04T09:53:19.165Z,4.70
2023-06-04T09:54:18.186Z,4.40
2023-06-04T09:55:18.162Z,4.70
2023-06-04T09:56:18.105Z,5.10
2023-06-04T09:57:18.001Z,4.50
2023-06-04T09:58:17.954Z,4.70
2023-06-04T09:59:17.896Z,4.80
2023-06-04T10:00:17.831Z,4.40
2023-06-04T10:01:17.877Z,4.90
2023-06-04T10:02:17.722Z,8.50
2023-06-04T10:03:17.833Z,4.20
2023-06-04T10:04:17.597Z,5.20
2023-06-04T10:05:17.578Z,5.70
2023-06-04T10:06:17.521Z,5.10
2023-06-04T10:07:17.460Z,5.30
2023-06-04T10:08:17.411Z,4.90
2023-06-04T10:09:17.304Z,4.30
2023-06-04T10:10:17.541Z,5.10
2023-06-04T10:11:17.234Z,5.00
2023-06-04T10:12:17.220Z,4.70
2023-06-04T10:13:17.256Z,5.10
2023-06-04T10:14:17.063Z,5.00
2023-06-04T10:15:17.954Z,4.50
2023-06-04T10:16:29.247Z,4.90
2023-06-04T10:17:16.890Z,4.70
2023-06-04T10:18:16.968Z,4.50
2023-06-04T10:19:16.762Z,4.90
2023-06-04T10:20:16.968Z,4.60
2023-06-04T10:21:18.376Z,5.40
2023-06-04T10:22:16.548Z,4.60
2023-06-04T10:23:16.565Z,5.00
2023-06-04T10:24:16.586Z,5.00
2023-06-04T10:25:16.395Z,4.20
2023-06-04T10:26:16.406Z,4.60
2023-06-04T10:27:18.027Z,4.80
2023-06-04T10:28:16.218Z,4.80
2023-06-04T10:29:16.148Z,4.30
2023-06-04T10:30:16.167Z,4.90
2023-06-04T10:31:16.086Z,4.40
2023-06-04T10:32:16.133Z,4.80
2023-06-04T10:33:19.215Z,4.60
2023-06-04T10:34:15.871Z,4.50
2023-06-04T10:35:15.799Z,5.00
2023-06-04T10:36:15.724Z,4.30
2023-06-04T10:37:16.449Z,4.60
2023-06-04T10:38:15.610Z,4.60
2023-06-04T10:39:15.551Z,3.90
2023-06-04T10:40:15.593Z,4.70
2023-06-04T10:41:16.185Z,4.70
2023-06-04T10:42:15.594Z,4.50
2023-06-04T10:43:15.375Z,4.70
2023-06-04T10:44:15.286Z,4.80
2023-06-04T10:45:15.207Z,4.90
2023-06-04T10:46:15.281Z,5.10
2023-06-04T10:47:15.312Z,4.90
2023-06-04T10:48:15.066Z,4.90
2023-06-04T10:49:14.993Z,4.80
2023-06-04T10:50:14.962Z,4.60
2023-06-04T10:51:14.955Z,4.50
2023-06-04T10:52:14.808Z,4.70
2023-06-04T10:53:14.731Z,5.30
2023-06-04T10:54:14.696Z,4.80
2023-06-04T10:55:14.773Z,4.70
2023-06-04T10:56:14.584Z,5.00
2023-06-04T10:57:14.831Z,4.60
2023-06-04T10:58:14.492Z,4.30
2023-06-04T10:59:14.379Z,4.90
2023-06-04T11:00:14.382Z,4.30
2023-06-04T11:01:14.349Z,4.30
2023-06-04T11:02:14.290Z,4.80
2023-06-04T11:03:14.325Z,4.50
2023-06-04T11:04:14.254Z,4.60
2023-06-04T11:05:14.061Z,5.30
2023-06-04T11:06:13.982Z,4.40
2023-06-04T11:07:13.924Z,4.80
2023-06-04T11:08:13.900Z,4.30
2023-06-04T11:09:13.841Z,4.80
2023-06-04T11:10:13.753Z,4.70
2023-06-04T11:11:13.750Z,4.90
2023-06-04T11:12:13.636Z,4.70
2023-06-04T11:13:13.576Z,4.70
2023-06-04T11:14:13.512Z,4.40
2023-06-04T11:15:13.673Z,4.80
2023-06-04T11:16:13.539Z,4.40
2023-06-04T11:17:13.410Z,4.70
2023-06-04T11:18:13.279Z,4.30
2023-06-04T11:19:13.292Z,4.60
2023-06-04T11:20:13.189Z,4.30
2023-06-04T11:21:13.200Z,4.90
2023-06-04T11:22:13.075Z,4.60
2023-06-04T11:23:13.057Z,4.10
2023-06-04T11:24:12.893Z,4.70
2023-06-04T11:25:12.860Z,4.40
2023-06-04T11:26:12.835Z,4.70
2023-06-04T11:27:24.071Z,4.80
2023-06-04T11:28:13.462Z,4.90
2023-06-04T11:29:12.639Z,4.50
2023-06-04T11:30:12.566Z,4.60
2023-06-04T11:31:12.569Z,4.80
2023-06-04T11:32:13.817Z,4.70
2023-06-04T11:33:12.400Z,4.50
2023-06-04T11:34:12.339Z,4.60
2023-06-04T11:35:12.257Z,4.20
2023-06-04T11:36:12.211Z,4.80
2023-06-04T11:37:12.159Z,4.30
2023-06-04T11:38:12.107Z,4.80
2023-06-04T11:39:12.071Z,4.30
2023-06-04T11:40:11.964Z,4.30
2023-06-04T11:41:11.944Z,4.20
2023-06-04T11:42:11.912Z,4.20
2023-06-04T11:43:11.810Z,4.30
2023-06-04T11:44:11.753Z,4.60
2023-06-04T11:45:11.700Z,4.80
2023-06-04T11:46:11.989Z,4.50
2023-06-04T11:47:11.533Z,4.30
2023-06-04T11:48:11.619Z,4.80
2023-06-04T11:49:11.407Z,4.60
2023-06-04T11:50:11.400Z,4.90
2023-06-04T11:51:11.337Z,4.60
2023-06-04T11:52:11.356Z,4.90
2023-06-04T11:53:11.174Z,4.70
2023-06-04T11:54:11.135Z,4.80
2023-06-04T11:55:11.105Z,4.40
2023-06-04T11:56:11.056Z,4.70
2023-06-04T11:57:10.959Z,4.70
2023-06-04T11:58:10.965Z,4.50
2023-06-04T11:59:10.861Z,5.10
2023-06-04T12:00:10.792Z,4.70
2023-06-04T12:01:11.449Z,4.60
2023-06-04T12:02:10.775Z,4.70
2023-06-04T12:03:10.791Z,4.50
2023-06-04T12:04:10.558Z,4.30
2023-06-04T12:05:10.479Z,4.50
2023-06-04T12:06:10.488Z,4.40
2023-06-04T12:07:10.365Z,4.70
2023-06-04T12:08:10.581Z,4.80
2023-06-04T12:09:10.384Z,4.60
2023-06-04T12:10:10.179Z,4.50
2023-06-04T12:11:10.094Z,4.30
2023-06-04T12:12:10.087Z,4.40
2023-06-04T12:13:10.160Z,4.20
2023-06-04T12:14:09.943Z,4.30
2023-06-04T12:15:10.579Z,4.50
2023-06-04T12:16:09.948Z,4.80
2023-06-04T12:17:09.901Z,4.40
2023-06-04T12:18:09.776Z,4.40
2023-06-04T12:19:09.668Z,4.70
2023-06-04T12:20:09.550Z,4.30
2023-06-04T12:21:09.525Z,4.50
2023-06-04T12:22:09.518Z,4.40
2023-06-04T12:23:09.449Z,4.90
2023-06-04T12:24:09.415Z,4.70
2023-06-04T12:25:09.280Z,4.60
2023-06-04T12:26:09.376Z,4.30
2023-06-04T12:27:09.166Z,4.70
2023-06-04T12:28:09.074Z,4.30
2023-06-04T12:29:09.040Z,4.70
2023-06-04T12:30:09.053Z,4.30
2023-06-04T12:31:09.011Z,4.50
2023-06-04T12:32:11.963Z,4.30
2023-06-04T12:33:08.879Z,4.50
2023-06-04T12:34:08.766Z,4.50
2023-06-04T12:35:08.678Z,4.40
2023-06-04T12:36:08.768Z,4.50
2023-06-04T12:37:08.592Z,4.40
2023-06-04T12:38:08.563Z,4.30
2023-06-04T12:39:08.486Z,4.60
2023-06-04T12:40:08.532Z,4.70
2023-06-04T12:41:08.349Z,4.50
2023-06-04T12:42:08.240Z,4.60
2023-06-04T12:43:08.209Z,4.00
2023-06-04T12:44:08.193Z,4.40
2023-06-04T12:45:08.090Z,4.30
2023-06-04T12:46:08.275Z,4.50
2023-06-04T12:47:08.145Z,4.50
2023-06-04T12:48:08.084Z,4.40
2023-06-04T12:49:07.849Z,4.50
2023-06-04T12:50:07.818Z,4.30
2023-06-04T12:51:08.720Z,4.20
2023-06-04T12:52:07.688Z,4.20
2023-06-04T12:53:07.580Z,4.20
2023-06-04T12:54:07.549Z,4.20
2023-06-04T12:55:07.544Z,4.60
2023-06-04T12:56:07.603Z,4.60
2023-06-04T12:57:07.436Z,4.60
2023-06-04T12:58:07.307Z,4.30
2023-06-04T12:59:07.245Z,4.70
2023-06-04T13:00:07.193Z,4.40
2023-06-04T13:01:07.397Z,4.40
2023-06-04T13:02:07.155Z,4.00
2023-06-04T13:03:08.037Z,4.60
2023-06-04T13:04:07.033Z,4.60
2023-06-04T13:05:06.929Z,4.10
2023-06-04T13:06:06.806Z,4.10
2023-06-04T13:07:06.777Z,4.20
2023-06-04T13:08:06.695Z,4.20
2023-06-04T13:09:06.639Z,4.40
2023-06-04T13:10:06.577Z,4.10
2023-06-04T13:11:06.689Z,4.30
2023-06-04T13:12:06.642Z,4.50
2023-06-04T13:13:06.414Z,4.00
2023-06-04T13:14:06.336Z,4.40
2023-06-04T13:15:06.305Z,4.60
2023-06-04T13:16:06.229Z,4.20
2023-06-04T13:17:17.937Z,4.40
2023-06-04T13:18:06.332Z,4.40